Accueil
METAR-TAF:

METAR-TAF

Aéroports :

Petawawa, Ontario, Canada

latitude: 45-57N, longitude: 077-19W, altitude: 130 m

Observation

Le bulletin a été fait il y a 18 minutes, à 02:00 UTC
Vent calme
Température -8°C
Humidité 79%
Pression 1040 hPa
Visibilité: 14.5 km
Ciel clair

METAR: CYWA 230200Z AUTO 00000KT 9SM CLR M08/M11 A3070 RMK SLP408

Heure: 21:18 (02:18 UTC)

Prévision

Le bulletin a été fait il y a 2 heures et 48 minutes, à 23:30 UTC
Prévision valable du 23 à 00 UTC au 23 à 12 UTC
Vent 5 kt de sud-est
Visibilité: 10 km
Quelques nuages à une hauteur de 18000 ft
A partir de 23 à 0900 UTC
Vent 5 kt de est/sud-est
Visibilité: 10 km
Quelques nuages à une hauteur de 3000 ft
Nuages fragmentés à une hauteur de 10000 ft

TAF: CYWA 222330Z 2300/2312 14005KT P6SM FEW180 FM230900 12005KT P6SM FEW030 BKN100 RMK FCST BASED ON AUTO OBS. NXT FCST BY 230600Z

Observations et prévisions météorologiques de plus de 4000 aéroports (messages METAR et TAF).

Les stations disponibles sont représentées par des disques jaunes et rouges sur la carte.

Passer la souris dessus pour voir le nom de la station.

Cliquer dessus pour voir les observations et prévisions météorologiques.

Pour changer de carte: cliquez sur les boutons verts avec une croix noire pour zoomer, sur le bouton vert avec un tiret pour effectuer un zoom arrière, ou sur les flèches vertes pour les cartes adjacentes.


METAR-TAF: